sensor_id;sensor_type;location;lat;lon;timestamp;P1;durP1;ratioP1;P2;durP2;ratioP2
75386;SDS011;63966;47.914;22.266;2024-02-23T00:01:19;8.80;;;4.47;;
75386;SDS011;63966;47.914;22.266;2024-02-23T00:04:23;9.57;;;4.18;;
75386;SDS011;63966;47.914;22.266;2024-02-23T00:07:26;9.20;;;4.53;;
75386;SDS011;63966;47.914;22.266;2024-02-23T00:10:30;9.40;;;3.97;;
75386;SDS011;63966;47.914;22.266;2024-02-23T00:13:33;8.82;;;3.97;;
75386;SDS011;63966;47.914;22.266;2024-02-23T00:16:38;8.30;;;4.03;;
75386;SDS011;63966;47.914;22.266;2024-02-23T00:19:44;9.50;;;4.28;;
75386;SDS011;63966;47.914;22.266;2024-02-23T00:22:49;10.63;;;4.60;;
75386;SDS011;63966;47.914;22.266;2024-02-23T00:25:52;8.55;;;4.35;;
75386;SDS011;63966;47.914;22.266;2024-02-23T00:28:56;8.60;;;4.40;;
75386;SDS011;63966;47.914;22.266;2024-02-23T00:31:59;11.35;;;4.82;;
75386;SDS011;63966;47.914;22.266;2024-02-23T00:35:03;9.82;;;4.53;;
75386;SDS011;63966;47.914;22.266;2024-02-23T00:38:06;11.17;;;5.00;;
75386;SDS011;63966;47.914;22.266;2024-02-23T00:41:10;9.50;;;4.70;;
75386;SDS011;63966;47.914;22.266;2024-02-23T00:44:13;10.07;;;5.28;;
75386;SDS011;63966;47.914;22.266;2024-02-23T00:47:17;10.18;;;5.65;;
75386;SDS011;63966;47.914;22.266;2024-02-23T00:50:21;15.18;;;5.78;;
75386;SDS011;63966;47.914;22.266;2024-02-23T00:53:26;11.73;;;5.60;;
75386;SDS011;63966;47.914;22.266;2024-02-23T00:56:29;10.10;;;4.68;;
75386;SDS011;63966;47.914;22.266;2024-02-23T00:59:46;9.60;;;4.43;;
75386;SDS011;63966;47.914;22.266;2024-02-23T01:02:49;7.85;;;4.07;;
75386;SDS011;63966;47.914;22.266;2024-02-23T01:05:53;10.68;;;4.40;;
75386;SDS011;63966;47.914;22.266;2024-02-23T01:08:56;8.97;;;4.20;;
75386;SDS011;63966;47.914;22.266;2024-02-23T01:12:00;9.48;;;4.93;;
75386;SDS011;63966;47.914;22.266;2024-02-23T01:15:03;9.43;;;4.70;;
75386;SDS011;63966;47.914;22.266;2024-02-23T01:18:07;10.68;;;5.03;;
75386;SDS011;63966;47.914;22.266;2024-02-23T01:21:11;13.38;;;5.00;;
75386;SDS011;63966;47.914;22.266;2024-02-23T01:24:15;9.53;;;4.27;;
75386;SDS011;63966;47.914;22.266;2024-02-23T01:27:19;10.75;;;4.70;;
75386;SDS011;63966;47.914;22.266;2024-02-23T01:30:22;10.02;;;4.53;;
75386;SDS011;63966;47.914;22.266;2024-02-23T01:33:26;9.73;;;4.65;;
75386;SDS011;63966;47.914;22.266;2024-02-23T01:36:29;9.05;;;4.55;;
75386;SDS011;63966;47.914;22.266;2024-02-23T01:39:33;9.73;;;4.27;;
75386;SDS011;63966;47.914;22.266;2024-02-23T01:42:36;9.15;;;4.53;;
75386;SDS011;63966;47.914;22.266;2024-02-23T01:45:39;10.63;;;4.43;;
75386;SDS011;63966;47.914;22.266;2024-02-23T01:48:43;8.88;;;4.50;;
75386;SDS011;63966;47.914;22.266;2024-02-23T01:51:48;9.15;;;4.45;;
75386;SDS011;63966;47.914;22.266;2024-02-23T01:54:52;10.03;;;4.50;;
75386;SDS011;63966;47.914;22.266;2024-02-23T01:57:56;10.05;;;4.72;;
75386;SDS011;63966;47.914;22.266;2024-02-23T02:01:00;11.18;;;5.45;;
75386;SDS011;63966;47.914;22.266;2024-02-23T02:04:04;10.15;;;4.70;;
75386;SDS011;63966;47.914;22.266;2024-02-23T02:07:07;9.82;;;4.82;;
75386;SDS011;63966;47.914;22.266;2024-02-23T02:10:11;10.60;;;4.53;;
75386;SDS011;63966;47.914;22.266;2024-02-23T02:13:15;9.90;;;4.60;;
75386;SDS011;63966;47.914;22.266;2024-02-23T02:16:18;11.18;;;4.95;;
75386;SDS011;63966;47.914;22.266;2024-02-23T02:19:21;8.45;;;4.28;;
75386;SDS011;63966;47.914;22.266;2024-02-23T02:22:25;8.98;;;4.63;;
75386;SDS011;63966;47.914;22.266;2024-02-23T02:25:28;9.23;;;4.27;;
75386;SDS011;63966;47.914;22.266;2024-02-23T02:28:32;10.50;;;4.50;;
75386;SDS011;63966;47.914;22.266;2024-02-23T02:31:36;10.32;;;5.78;;
75386;SDS011;63966;47.914;22.266;2024-02-23T02:34:40;11.98;;;5.30;;
75386;SDS011;63966;47.914;22.266;2024-02-23T02:37:43;11.32;;;5.90;;
75386;SDS011;63966;47.914;22.266;2024-02-23T02:40:47;11.03;;;5.23;;
75386;SDS011;63966;47.914;22.266;2024-02-23T02:43:50;9.32;;;4.88;;
75386;SDS011;63966;47.914;22.266;2024-02-23T02:46:54;9.98;;;4.38;;
75386;SDS011;63966;47.914;22.266;2024-02-23T02:49:57;8.80;;;4.22;;
75386;SDS011;63966;47.914;22.266;2024-02-23T02:53:01;8.80;;;4.35;;
75386;SDS011;63966;47.914;22.266;2024-02-23T02:56:05;8.30;;;4.00;;
75386;SDS011;63966;47.914;22.266;2024-02-23T02:59:09;9.32;;;4.30;;
75386;SDS011;63966;47.914;22.266;2024-02-23T03:02:13;9.25;;;4.15;;
75386;SDS011;63966;47.914;22.266;2024-02-23T03:05:16;10.73;;;4.40;;
75386;SDS011;63966;47.914;22.266;2024-02-23T03:08:21;9.52;;;4.60;;
75386;SDS011;63966;47.914;22.266;2024-02-23T03:11:24;9.33;;;4.30;;
75386;SDS011;63966;47.914;22.266;2024-02-23T03:14:27;8.05;;;4.15;;
75386;SDS011;63966;47.914;22.266;2024-02-23T03:17:31;8.10;;;4.18;;
75386;SDS011;63966;47.914;22.266;2024-02-23T03:20:35;9.63;;;4.20;;
75386;SDS011;63966;47.914;22.266;2024-02-23T03:23:38;8.65;;;4.03;;
75386;SDS011;63966;47.914;22.266;2024-02-23T03:26:42;9.63;;;3.77;;
75386;SDS011;63966;47.914;22.266;2024-02-23T03:29:46;9.25;;;4.05;;
75386;SDS011;63966;47.914;22.266;2024-02-23T03:32:49;7.80;;;4.03;;
75386;SDS011;63966;47.914;22.266;2024-02-23T03:35:53;9.18;;;3.97;;
75386;SDS011;63966;47.914;22.266;2024-02-23T03:38:57;8.15;;;4.00;;
75386;SDS011;63966;47.914;22.266;2024-02-23T03:42:01;8.30;;;3.60;;
75386;SDS011;63966;47.914;22.266;2024-02-23T03:45:04;10.20;;;4.53;;
75386;SDS011;63966;47.914;22.266;2024-02-23T03:48:08;9.85;;;4.25;;
75386;SDS011;63966;47.914;22.266;2024-02-23T03:51:11;8.23;;;3.80;;
75386;SDS011;63966;47.914;22.266;2024-02-23T03:54:15;9.57;;;3.85;;
75386;SDS011;63966;47.914;22.266;2024-02-23T03:57:18;8.67;;;3.50;;
75386;SDS011;63966;47.914;22.266;2024-02-23T04:00:22;7.50;;;3.60;;
75386;SDS011;63966;47.914;22.266;2024-02-23T04:03:25;7.15;;;3.40;;
75386;SDS011;63966;47.914;22.266;2024-02-23T04:06:29;7.22;;;3.60;;
75386;SDS011;63966;47.914;22.266;2024-02-23T04:09:33;8.38;;;3.88;;
75386;SDS011;63966;47.914;22.266;2024-02-23T04:12:36;7.80;;;3.73;;
75386;SDS011;63966;47.914;22.266;2024-02-23T04:15:40;9.20;;;4.03;;
75386;SDS011;63966;47.914;22.266;2024-02-23T04:18:43;6.90;;;3.33;;
75386;SDS011;63966;47.914;22.266;2024-02-23T04:21:47;8.63;;;3.75;;
75386;SDS011;63966;47.914;22.266;2024-02-23T04:24:50;7.32;;;3.83;;
75386;SDS011;63966;47.914;22.266;2024-02-23T04:27:54;6.90;;;3.43;;
75386;SDS011;63966;47.914;22.266;2024-02-23T04:30:57;8.05;;;3.53;;
75386;SDS011;63966;47.914;22.266;2024-02-23T04:34:00;8.07;;;3.70;;
75386;SDS011;63966;47.914;22.266;2024-02-23T04:37:04;8.60;;;3.63;;
75386;SDS011;63966;47.914;22.266;2024-02-23T04:40:08;9.13;;;3.90;;
75386;SDS011;63966;47.914;22.266;2024-02-23T04:43:11;8.10;;;3.63;;
75386;SDS011;63966;47.914;22.266;2024-02-23T04:46:15;7.20;;;3.47;;
75386;SDS011;63966;47.914;22.266;2024-02-23T04:49:18;7.88;;;3.40;;
75386;SDS011;63966;47.914;22.266;2024-02-23T04:52:22;8.60;;;3.63;;
75386;SDS011;63966;47.914;22.266;2024-02-23T04:55:25;7.05;;;3.50;;
75386;SDS011;63966;47.914;22.266;2024-02-23T04:58:29;7.50;;;3.47;;
75386;SDS011;63966;47.914;22.266;2024-02-23T05:01:36;8.55;;;3.40;;
75386;SDS011;63966;47.914;22.266;2024-02-23T05:04:39;7.80;;;3.83;;
75386;SDS011;63966;47.914;22.266;2024-02-23T05:07:43;8.85;;;3.75;;
75386;SDS011;63966;47.914;22.266;2024-02-23T05:10:46;10.15;;;4.40;;
75386;SDS011;63966;47.914;22.266;2024-02-23T05:13:50;8.70;;;3.70;;
75386;SDS011;63966;47.914;22.266;2024-02-23T05:16:53;7.45;;;3.70;;
75386;SDS011;63966;47.914;22.266;2024-02-23T05:19:57;9.70;;;4.00;;
75386;SDS011;63966;47.914;22.266;2024-02-23T05:23:00;9.23;;;4.07;;
75386;SDS011;63966;47.914;22.266;2024-02-23T05:26:04;7.60;;;4.07;;
75386;SDS011;63966;47.914;22.266;2024-02-23T05:29:09;7.73;;;4.07;;
75386;SDS011;63966;47.914;22.266;2024-02-23T05:32:15;8.30;;;3.80;;
75386;SDS011;63966;47.914;22.266;2024-02-23T05:35:19;7.43;;;4.00;;
75386;SDS011;63966;47.914;22.266;2024-02-23T05:38:23;8.85;;;3.90;;
75386;SDS011;63966;47.914;22.266;2024-02-23T05:41:26;10.02;;;4.13;;
75386;SDS011;63966;47.914;22.266;2024-02-23T05:44:29;8.83;;;4.00;;
75386;SDS011;63966;47.914;22.266;2024-02-23T05:47:33;9.15;;;3.97;;
75386;SDS011;63966;47.914;22.266;2024-02-23T05:50:38;10.18;;;3.92;;
75386;SDS011;63966;47.914;22.266;2024-02-23T05:53:41;9.50;;;4.18;;
75386;SDS011;63966;47.914;22.266;2024-02-23T05:56:47;8.48;;;4.00;;
75386;SDS011;63966;47.914;22.266;2024-02-23T05:59:52;9.13;;;4.03;;
75386;SDS011;63966;47.914;22.266;2024-02-23T06:02:55;13.27;;;4.50;;
75386;SDS011;63966;47.914;22.266;2024-02-23T06:05:59;9.85;;;4.82;;
75386;SDS011;63966;47.914;22.266;2024-02-23T06:09:02;8.80;;;4.47;;
75386;SDS011;63966;47.914;22.266;2024-02-23T06:12:08;11.15;;;5.07;;
75386;SDS011;63966;47.914;22.266;2024-02-23T06:15:11;9.10;;;4.80;;
75386;SDS011;63966;47.914;22.266;2024-02-23T06:18:15;8.70;;;4.63;;
75386;SDS011;63966;47.914;22.266;2024-02-23T06:21:18;12.02;;;5.15;;
75386;SDS011;63966;47.914;22.266;2024-02-23T06:24:22;10.35;;;5.38;;
75386;SDS011;63966;47.914;22.266;2024-02-23T06:27:25;9.90;;;5.32;;
75386;SDS011;63966;47.914;22.266;2024-02-23T06:30:30;12.70;;;5.37;;
75386;SDS011;63966;47.914;22.266;2024-02-23T06:33:33;11.10;;;5.53;;
75386;SDS011;63966;47.914;22.266;2024-02-23T06:36:37;12.02;;;5.38;;
75386;SDS011;63966;47.914;22.266;2024-02-23T06:39:40;10.27;;;5.22;;
75386;SDS011;63966;47.914;22.266;2024-02-23T06:42:44;9.32;;;5.10;;
75386;SDS011;63966;47.914;22.266;2024-02-23T06:45:47;10.87;;;4.83;;
75386;SDS011;63966;47.914;22.266;2024-02-23T06:48:51;10.23;;;5.00;;
75386;SDS011;63966;47.914;22.266;2024-02-23T06:51:55;8.80;;;4.65;;
75386;SDS011;63966;47.914;22.266;2024-02-23T06:54:58;10.65;;;5.13;;
75386;SDS011;63966;47.914;22.266;2024-02-23T06:58:02;11.13;;;4.97;;
75386;SDS011;63966;47.914;22.266;2024-02-23T07:01:09;11.70;;;5.70;;
75386;SDS011;63966;47.914;22.266;2024-02-23T07:04:15;10.20;;;5.15;;
75386;SDS011;63966;47.914;22.266;2024-02-23T07:07:19;9.40;;;4.70;;
75386;SDS011;63966;47.914;22.266;2024-02-23T07:10:22;10.38;;;5.00;;
75386;SDS011;63966;47.914;22.266;2024-02-23T07:13:27;11.00;;;5.70;;
75386;SDS011;63966;47.914;22.266;2024-02-23T07:16:32;10.33;;;5.47;;
75386;SDS011;63966;47.914;22.266;2024-02-23T07:19:35;9.35;;;4.55;;
75386;SDS011;63966;47.914;22.266;2024-02-23T07:22:39;10.38;;;5.20;;
75386;SDS011;63966;47.914;22.266;2024-02-23T07:25:45;9.57;;;4.93;;
75386;SDS011;63966;47.914;22.266;2024-02-23T07:28:50;9.75;;;5.47;;
75386;SDS011;63966;47.914;22.266;2024-02-23T07:31:53;13.20;;;5.30;;
75386;SDS011;63966;47.914;22.266;2024-02-23T07:34:57;10.85;;;5.32;;
75386;SDS011;63966;47.914;22.266;2024-02-23T07:38:00;10.25;;;5.03;;
75386;SDS011;63966;47.914;22.266;2024-02-23T07:41:03;8.90;;;4.78;;
75386;SDS011;63966;47.914;22.266;2024-02-23T07:44:07;8.52;;;4.60;;
75386;SDS011;63966;47.914;22.266;2024-02-23T07:47:11;10.13;;;5.33;;
75386;SDS011;63966;47.914;22.266;2024-02-23T07:50:15;9.45;;;4.82;;
75386;SDS011;63966;47.914;22.266;2024-02-23T07:53:21;11.45;;;5.00;;
75386;SDS011;63966;47.914;22.266;2024-02-23T07:56:25;8.77;;;4.65;;
75386;SDS011;63966;47.914;22.266;2024-02-23T07:59:28;14.65;;;6.15;;
75386;SDS011;63966;47.914;22.266;2024-02-23T08:02:32;10.93;;;5.70;;
75386;SDS011;63966;47.914;22.266;2024-02-23T08:05:36;10.32;;;4.88;;
75386;SDS011;63966;47.914;22.266;2024-02-23T08:08:39;10.13;;;5.05;;
75386;SDS011;63966;47.914;22.266;2024-02-23T08:11:43;9.93;;;4.70;;
75386;SDS011;63966;47.914;22.266;2024-02-23T08:14:49;10.35;;;4.97;;
75386;SDS011;63966;47.914;22.266;2024-02-23T08:17:55;10.50;;;5.30;;
75386;SDS011;63966;47.914;22.266;2024-02-23T08:20:59;10.95;;;5.60;;
75386;SDS011;63966;47.914;22.266;2024-02-23T08:24:05;11.27;;;6.00;;
75386;SDS011;63966;47.914;22.266;2024-02-23T08:27:09;10.43;;;5.63;;
75386;SDS011;63966;47.914;22.266;2024-02-23T08:30:13;9.85;;;4.93;;
75386;SDS011;63966;47.914;22.266;2024-02-23T08:33:17;9.63;;;5.27;;
75386;SDS011;63966;47.914;22.266;2024-02-23T08:36:20;10.98;;;5.35;;
75386;SDS011;63966;47.914;22.266;2024-02-23T08:39:24;11.13;;;5.80;;
75386;SDS011;63966;47.914;22.266;2024-02-23T08:42:27;10.88;;;6.10;;
75386;SDS011;63966;47.914;22.266;2024-02-23T08:45:31;12.23;;;6.15;;
75386;SDS011;63966;47.914;22.266;2024-02-23T08:48:34;12.37;;;5.87;;
75386;SDS011;63966;47.914;22.266;2024-02-23T08:51:58;11.73;;;5.53;;
75386;SDS011;63966;47.914;22.266;2024-02-23T08:55:01;11.85;;;5.60;;
75386;SDS011;63966;47.914;22.266;2024-02-23T08:58:05;9.27;;;5.03;;
75386;SDS011;63966;47.914;22.266;2024-02-23T09:01:09;10.60;;;5.20;;
75386;SDS011;63966;47.914;22.266;2024-02-23T09:04:13;12.30;;;5.83;;
75386;SDS011;63966;47.914;22.266;2024-02-23T09:07:17;10.48;;;5.40;;
75386;SDS011;63966;47.914;22.266;2024-02-23T09:10:23;10.27;;;5.13;;
75386;SDS011;63966;47.914;22.266;2024-02-23T09:13:27;9.05;;;4.72;;
75386;SDS011;63966;47.914;22.266;2024-02-23T09:16:54;10.00;;;5.10;;
75386;SDS011;63966;47.914;22.266;2024-02-23T09:20:00;11.37;;;4.97;;
75386;SDS011;63966;47.914;22.266;2024-02-23T09:23:25;10.38;;;4.63;;
75386;SDS011;63966;47.914;22.266;2024-02-23T09:27:04;8.55;;;4.63;;
75386;SDS011;63966;47.914;22.266;2024-02-23T09:30:14;9.45;;;4.45;;
75386;SDS011;63966;47.914;22.266;2024-02-23T09:33:18;11.85;;;5.50;;
75386;SDS011;63966;47.914;22.266;2024-02-23T09:36:21;9.40;;;5.23;;
75386;SDS011;63966;47.914;22.266;2024-02-23T09:39:26;9.73;;;4.53;;
75386;SDS011;63966;47.914;22.266;2024-02-23T09:42:32;9.88;;;5.00;;
75386;SDS011;63966;47.914;22.266;2024-02-23T09:45:36;8.25;;;4.30;;
75386;SDS011;63966;47.914;22.266;2024-02-23T09:48:44;8.45;;;4.53;;
75386;SDS011;63966;47.914;22.266;2024-02-23T09:51:50;8.50;;;4.60;;
75386;SDS011;63966;47.914;22.266;2024-02-23T09:54:56;8.32;;;3.92;;
75386;SDS011;63966;47.914;22.266;2024-02-23T09:57:59;8.70;;;4.03;;
75386;SDS011;63966;47.914;22.266;2024-02-23T10:01:05;7.57;;;4.38;;
75386;SDS011;63966;47.914;22.266;2024-02-23T10:04:10;11.02;;;4.43;;
75386;SDS011;63966;47.914;22.266;2024-02-23T10:07:14;13.10;;;5.43;;
75386;SDS011;63966;47.914;22.266;2024-02-23T10:10:24;9.55;;;4.72;;
75386;SDS011;63966;47.914;22.266;2024-02-23T10:13:42;11.07;;;4.72;;
75386;SDS011;63966;47.914;22.266;2024-02-23T10:16:45;10.60;;;4.53;;
75386;SDS011;63966;47.914;22.266;2024-02-23T10:19:49;10.73;;;4.47;;
75386;SDS011;63966;47.914;22.266;2024-02-23T10:22:53;9.37;;;4.40;;
75386;SDS011;63966;47.914;22.266;2024-02-23T10:25:57;9.00;;;4.38;;
75386;SDS011;63966;47.914;22.266;2024-02-23T10:29:03;10.40;;;5.07;;
75386;SDS011;63966;47.914;22.266;2024-02-23T10:32:13;9.68;;;3.95;;
75386;SDS011;63966;47.914;22.266;2024-02-23T10:35:18;8.50;;;4.60;;
75386;SDS011;63966;47.914;22.266;2024-02-23T10:38:22;9.60;;;4.30;;
75386;SDS011;63966;47.914;22.266;2024-02-23T10:41:27;8.50;;;4.70;;
75386;SDS011;63966;47.914;22.266;2024-02-23T10:44:34;10.13;;;4.72;;
75386;SDS011;63966;47.914;22.266;2024-02-23T10:47:40;8.05;;;4.38;;
75386;SDS011;63966;47.914;22.266;2024-02-23T10:50:44;10.70;;;4.65;;
75386;SDS011;63966;47.914;22.266;2024-02-23T10:53:48;12.63;;;5.13;;
75386;SDS011;63966;47.914;22.266;2024-02-23T10:56:52;8.45;;;4.50;;
75386;SDS011;63966;47.914;22.266;2024-02-23T10:59:58;9.25;;;4.32;;
75386;SDS011;63966;47.914;22.266;2024-02-23T11:03:02;10.02;;;5.22;;
75386;SDS011;63966;47.914;22.266;2024-02-23T11:06:07;11.93;;;4.72;;
75386;SDS011;63966;47.914;22.266;2024-02-23T11:09:12;10.33;;;4.80;;
75386;SDS011;63966;47.914;22.266;2024-02-23T11:12:22;11.80;;;5.10;;
75386;SDS011;63966;47.914;22.266;2024-02-23T11:15:27;12.18;;;5.38;;
75386;SDS011;63966;47.914;22.266;2024-02-23T11:18:32;9.70;;;5.13;;
75386;SDS011;63966;47.914;22.266;2024-02-23T11:21:38;11.65;;;5.30;;
75386;SDS011;63966;47.914;22.266;2024-02-23T11:24:42;10.60;;;5.13;;
75386;SDS011;63966;47.914;22.266;2024-02-23T11:27:49;11.60;;;4.93;;
75386;SDS011;63966;47.914;22.266;2024-02-23T11:30:56;11.65;;;5.07;;
75386;SDS011;63966;47.914;22.266;2024-02-23T11:34:07;10.27;;;4.97;;
75386;SDS011;63966;47.914;22.266;2024-02-23T11:37:12;10.55;;;5.32;;
75386;SDS011;63966;47.914;22.266;2024-02-23T11:40:18;9.90;;;5.00;;
75386;SDS011;63966;47.914;22.266;2024-02-23T11:43:22;11.43;;;5.03;;
75386;SDS011;63966;47.914;22.266;2024-02-23T11:46:25;10.35;;;5.25;;
75386;SDS011;63966;47.914;22.266;2024-02-23T11:49:29;10.95;;;5.68;;
75386;SDS011;63966;47.914;22.266;2024-02-23T11:52:34;12.55;;;6.38;;
75386;SDS011;63966;47.914;22.266;2024-02-23T11:55:38;10.77;;;5.70;;
75386;SDS011;63966;47.914;22.266;2024-02-23T11:58:42;10.63;;;5.47;;
75386;SDS011;63966;47.914;22.266;2024-02-23T12:01:46;10.38;;;5.57;;
75386;SDS011;63966;47.914;22.266;2024-02-23T12:04:49;10.48;;;5.40;;
75386;SDS011;63966;47.914;22.266;2024-02-23T12:07:53;10.25;;;5.70;;
75386;SDS011;63966;47.914;22.266;2024-02-23T12:10:57;10.47;;;5.60;;
75386;SDS011;63966;47.914;22.266;2024-02-23T12:14:02;11.07;;;5.40;;
75386;SDS011;63966;47.914;22.266;2024-02-23T12:17:10;10.70;;;5.00;;
75386;SDS011;63966;47.914;22.266;2024-02-23T12:20:13;9.82;;;4.97;;
75386;SDS011;63966;47.914;22.266;2024-02-23T12:23:18;9.55;;;5.07;;
75386;SDS011;63966;47.914;22.266;2024-02-23T12:26:21;12.13;;;5.40;;
75386;SDS011;63966;47.914;22.266;2024-02-23T12:29:25;9.73;;;5.50;;
75386;SDS011;63966;47.914;22.266;2024-02-23T12:32:29;10.75;;;5.43;;
75386;SDS011;63966;47.914;22.266;2024-02-23T12:35:33;11.77;;;6.82;;
75386;SDS011;63966;47.914;22.266;2024-02-23T12:38:41;11.60;;;6.75;;
75386;SDS011;63966;47.914;22.266;2024-02-23T12:41:44;13.63;;;6.83;;
75386;SDS011;63966;47.914;22.266;2024-02-23T12:44:48;9.65;;;5.57;;
75386;SDS011;63966;47.914;22.266;2024-02-23T12:47:52;18.35;;;8.07;;
75386;SDS011;63966;47.914;22.266;2024-02-23T12:50:56;17.45;;;7.88;;
75386;SDS011;63966;47.914;22.266;2024-02-23T12:53:59;20.02;;;10.45;;
75386;SDS011;63966;47.914;22.266;2024-02-23T12:57:03;11.90;;;6.57;;
75386;SDS011;63966;47.914;22.266;2024-02-23T13:00:07;20.98;;;10.63;;
75386;SDS011;63966;47.914;22.266;2024-02-23T13:03:11;15.82;;;8.05;;
75386;SDS011;63966;47.914;22.266;2024-02-23T13:06:15;11.85;;;7.22;;
75386;SDS011;63966;47.914;22.266;2024-02-23T13:09:18;11.60;;;5.70;;
75386;SDS011;63966;47.914;22.266;2024-02-23T13:12:22;10.30;;;5.50;;
75386;SDS011;63966;47.914;22.266;2024-02-23T13:15:26;13.20;;;6.30;;
75386;SDS011;63966;47.914;22.266;2024-02-23T13:18:30;14.45;;;6.38;;
75386;SDS011;63966;47.914;22.266;2024-02-23T13:21:33;10.45;;;5.57;;
75386;SDS011;63966;47.914;22.266;2024-02-23T13:24:37;14.43;;;6.63;;
75386;SDS011;63966;47.914;22.266;2024-02-23T13:27:42;14.40;;;7.53;;
75386;SDS011;63966;47.914;22.266;2024-02-23T13:30:45;15.52;;;8.27;;
75386;SDS011;63966;47.914;22.266;2024-02-23T13:33:51;12.70;;;7.30;;
75386;SDS011;63966;47.914;22.266;2024-02-23T13:36:55;17.52;;;8.45;;
75386;SDS011;63966;47.914;22.266;2024-02-23T13:39:59;14.50;;;6.70;;
75386;SDS011;63966;47.914;22.266;2024-02-23T13:43:03;13.63;;;7.17;;
75386;SDS011;63966;47.914;22.266;2024-02-23T13:46:06;12.77;;;7.05;;
75386;SDS011;63966;47.914;22.266;2024-02-23T13:49:10;12.90;;;6.13;;
75386;SDS011;63966;47.914;22.266;2024-02-23T13:52:15;12.85;;;5.60;;
75386;SDS011;63966;47.914;22.266;2024-02-23T13:55:18;10.40;;;5.72;;
75386;SDS011;63966;47.914;22.266;2024-02-23T13:58:23;11.80;;;5.80;;
75386;SDS011;63966;47.914;22.266;2024-02-23T14:01:26;8.85;;;5.25;;
75386;SDS011;63966;47.914;22.266;2024-02-23T14:04:30;11.73;;;6.25;;
75386;SDS011;63966;47.914;22.266;2024-02-23T14:07:34;14.10;;;6.00;;
75386;SDS011;63966;47.914;22.266;2024-02-23T14:10:38;11.82;;;5.90;;
75386;SDS011;63966;47.914;22.266;2024-02-23T14:13:43;12.50;;;6.47;;
75386;SDS011;63966;47.914;22.266;2024-02-23T14:16:50;14.35;;;7.35;;
75386;SDS011;63966;47.914;22.266;2024-02-23T14:19:54;11.20;;;6.43;;
75386;SDS011;63966;47.914;22.266;2024-02-23T14:22:58;16.92;;;8.43;;
75386;SDS011;63966;47.914;22.266;2024-02-23T14:26:03;13.52;;;8.05;;
75386;SDS011;63966;47.914;22.266;2024-02-23T14:29:06;15.93;;;8.77;;
75386;SDS011;63966;47.914;22.266;2024-02-23T14:32:12;32.00;;;20.35;;
75386;SDS011;63966;47.914;22.266;2024-02-23T14:35:19;42.88;;;31.58;;
75386;SDS011;63966;47.914;22.266;2024-02-23T14:38:23;24.63;;;16.10;;
75386;SDS011;63966;47.914;22.266;2024-02-23T14:41:27;59.20;;;28.38;;
75386;SDS011;63966;47.914;22.266;2024-02-23T14:44:30;26.53;;;14.80;;
75386;SDS011;63966;47.914;22.266;2024-02-23T14:47:34;11.68;;;6.40;;
75386;SDS011;63966;47.914;22.266;2024-02-23T14:50:47;12.70;;;7.38;;
75386;SDS011;63966;47.914;22.266;2024-02-23T14:53:51;12.98;;;6.97;;
75386;SDS011;63966;47.914;22.266;2024-02-23T14:56:54;13.35;;;6.50;;
75386;SDS011;63966;47.914;22.266;2024-02-23T14:59:58;15.77;;;7.00;;
75386;SDS011;63966;47.914;22.266;2024-02-23T15:03:02;18.38;;;8.55;;
75386;SDS011;63966;47.914;22.266;2024-02-23T15:06:06;13.43;;;6.22;;
75386;SDS011;63966;47.914;22.266;2024-02-23T15:09:10;14.10;;;6.22;;
75386;SDS011;63966;47.914;22.266;2024-02-23T15:12:14;11.05;;;5.55;;
75386;SDS011;63966;47.914;22.266;2024-02-23T15:15:19;9.23;;;4.90;;
75386;SDS011;63966;47.914;22.266;2024-02-23T15:18:22;17.35;;;8.55;;
75386;SDS011;63966;47.914;22.266;2024-02-23T15:21:26;16.55;;;10.48;;
75386;SDS011;63966;47.914;22.266;2024-02-23T15:24:30;18.55;;;7.63;;
75386;SDS011;63966;47.914;22.266;2024-02-23T15:27:33;15.45;;;7.38;;
75386;SDS011;63966;47.914;22.266;2024-02-23T15:30:37;19.43;;;8.17;;
75386;SDS011;63966;47.914;22.266;2024-02-23T15:33:40;19.73;;;7.72;;
75386;SDS011;63966;47.914;22.266;2024-02-23T15:36:44;22.58;;;8.27;;
75386;SDS011;63966;47.914;22.266;2024-02-23T15:39:48;19.48;;;7.85;;
75386;SDS011;63966;47.914;22.266;2024-02-23T15:42:51;44.38;;;16.60;;
75386;SDS011;63966;47.914;22.266;2024-02-23T15:45:55;23.03;;;9.53;;
75386;SDS011;63966;47.914;22.266;2024-02-23T15:48:59;21.50;;;9.90;;
75386;SDS011;63966;47.914;22.266;2024-02-23T15:52:17;17.20;;;8.52;;
75386;SDS011;63966;47.914;22.266;2024-02-23T15:55:20;15.73;;;7.50;;
75386;SDS011;63966;47.914;22.266;2024-02-23T15:58:24;14.75;;;7.70;;
75386;SDS011;63966;47.914;22.266;2024-02-23T16:01:27;26.40;;;12.53;;
75386;SDS011;63966;47.914;22.266;2024-02-23T16:04:31;28.38;;;12.85;;
75386;SDS011;63966;47.914;22.266;2024-02-23T16:07:34;20.10;;;10.07;;
75386;SDS011;63966;47.914;22.266;2024-02-23T16:10:38;13.77;;;6.93;;
75386;SDS011;63966;47.914;22.266;2024-02-23T16:13:42;12.82;;;6.38;;
75386;SDS011;63966;47.914;22.266;2024-02-23T16:16:45;11.37;;;5.43;;
75386;SDS011;63966;47.914;22.266;2024-02-23T16:19:50;9.45;;;5.82;;
75386;SDS011;63966;47.914;22.266;2024-02-23T16:22:53;12.57;;;6.68;;
75386;SDS011;63966;47.914;22.266;2024-02-23T16:25:57;14.65;;;5.70;;
75386;SDS011;63966;47.914;22.266;2024-02-23T16:29:01;14.93;;;6.10;;
75386;SDS011;63966;47.914;22.266;2024-02-23T16:32:05;9.47;;;5.03;;
75386;SDS011;63966;47.914;22.266;2024-02-23T16:35:08;11.30;;;5.40;;
75386;SDS011;63966;47.914;22.266;2024-02-23T16:38:20;10.45;;;5.82;;
75386;SDS011;63966;47.914;22.266;2024-02-23T16:41:23;13.55;;;6.07;;
75386;SDS011;63966;47.914;22.266;2024-02-23T16:44:27;16.92;;;8.25;;
75386;SDS011;63966;47.914;22.266;2024-02-23T16:47:30;24.67;;;10.87;;
75386;SDS011;63966;47.914;22.266;2024-02-23T16:50:38;15.73;;;7.15;;
75386;SDS011;63966;47.914;22.266;2024-02-23T16:53:48;13.82;;;6.30;;
75386;SDS011;63966;47.914;22.266;2024-02-23T16:56:51;10.32;;;5.65;;
75386;SDS011;63966;47.914;22.266;2024-02-23T16:59:55;13.27;;;6.90;;
75386;SDS011;63966;47.914;22.266;2024-02-23T17:02:59;13.97;;;6.30;;
75386;SDS011;63966;47.914;22.266;2024-02-23T17:06:03;12.13;;;6.10;;
75386;SDS011;63966;47.914;22.266;2024-02-23T17:09:07;17.98;;;8.18;;
75386;SDS011;63966;47.914;22.266;2024-02-23T17:12:14;19.55;;;9.13;;
75386;SDS011;63966;47.914;22.266;2024-02-23T17:15:23;14.45;;;7.60;;
75386;SDS011;63966;47.914;22.266;2024-02-23T17:18:26;14.20;;;6.97;;
75386;SDS011;63966;47.914;22.266;2024-02-23T17:21:30;13.95;;;6.40;;
75386;SDS011;63966;47.914;22.266;2024-02-23T17:24:33;18.00;;;8.15;;
75386;SDS011;63966;47.914;22.266;2024-02-23T17:27:37;17.38;;;8.82;;
75386;SDS011;63966;47.914;22.266;2024-02-23T17:30:40;19.40;;;8.38;;
75386;SDS011;63966;47.914;22.266;2024-02-23T17:33:44;12.97;;;6.87;;
75386;SDS011;63966;47.914;22.266;2024-02-23T17:36:47;12.00;;;6.20;;
75386;SDS011;63966;47.914;22.266;2024-02-23T17:39:51;11.43;;;6.55;;
75386;SDS011;63966;47.914;22.266;2024-02-23T17:43:01;12.27;;;6.38;;
75386;SDS011;63966;47.914;22.266;2024-02-23T17:46:04;11.93;;;7.20;;
75386;SDS011;63966;47.914;22.266;2024-02-23T17:49:10;13.87;;;6.70;;
75386;SDS011;63966;47.914;22.266;2024-02-23T17:52:14;17.58;;;7.05;;
75386;SDS011;63966;47.914;22.266;2024-02-23T17:55:18;13.15;;;6.45;;
75386;SDS011;63966;47.914;22.266;2024-02-23T17:58:21;15.90;;;7.22;;
75386;SDS011;63966;47.914;22.266;2024-02-23T18:01:28;13.77;;;6.95;;
75386;SDS011;63966;47.914;22.266;2024-02-23T18:04:34;14.53;;;6.83;;